sensor_id;sensor_type;location;lat;lon;timestamp;temperature;humidity
10344;DHT22;5217;43.960;10.954;2022-09-16T00:01:11;25.50;99.90
10344;DHT22;5217;43.960;10.954;2022-09-16T00:03:40;25.50;99.90
10344;DHT22;5217;43.960;10.954;2022-09-16T00:06:16;25.40;99.90
10344;DHT22;5217;43.960;10.954;2022-09-16T00:08:46;25.40;99.90
10344;DHT22;5217;43.960;10.954;2022-09-16T00:11:14;25.40;99.90
10344;DHT22;5217;43.960;10.954;2022-09-16T00:13:45;25.40;99.90
10344;DHT22;5217;43.960;10.954;2022-09-16T00:16:17;25.40;99.90
10344;DHT22;5217;43.960;10.954;2022-09-16T00:18:46;25.40;99.90
10344;DHT22;5217;43.960;10.954;2022-09-16T00:21:15;25.40;99.90
10344;DHT22;5217;43.960;10.954;2022-09-16T00:23:43;25.40;99.90
10344;DHT22;5217;43.960;10.954;2022-09-16T00:26:11;25.40;99.90
10344;DHT22;5217;43.960;10.954;2022-09-16T00:28:40;25.40;99.90
10344;DHT22;5217;43.960;10.954;2022-09-16T00:31:10;25.40;99.90
10344;DHT22;5217;43.960;10.954;2022-09-16T00:33:38;25.40;99.90
10344;DHT22;5217;43.960;10.954;2022-09-16T00:36:08;25.40;99.90
10344;DHT22;5217;43.960;10.954;2022-09-16T00:38:37;25.40;99.90
10344;DHT22;5217;43.960;10.954;2022-09-16T00:41:06;25.40;99.90
10344;DHT22;5217;43.960;10.954;2022-09-16T00:43:50;25.40;99.90
10344;DHT22;5217;43.960;10.954;2022-09-16T00:46:24;25.40;99.90
10344;DHT22;5217;43.960;10.954;2022-09-16T00:48:54;25.40;99.90
10344;DHT22;5217;43.960;10.954;2022-09-16T00:51:22;25.40;99.90
10344;DHT22;5217;43.960;10.954;2022-09-16T00:53:55;25.40;99.90
10344;DHT22;5217;43.960;10.954;2022-09-16T00:56:26;25.40;99.90
10344;DHT22;5217;43.960;10.954;2022-09-16T00:59:00;25.40;99.90
10344;DHT22;5217;43.960;10.954;2022-09-16T01:01:31;25.30;99.90
10344;DHT22;5217;43.960;10.954;2022-09-16T01:04:02;25.30;99.90
10344;DHT22;5217;43.960;10.954;2022-09-16T01:06:35;25.30;99.90
10344;DHT22;5217;43.960;10.954;2022-09-16T01:09:05;25.30;99.90
10344;DHT22;5217;43.960;10.954;2022-09-16T01:11:33;25.30;99.90
10344;DHT22;5217;43.960;10.954;2022-09-16T01:14:03;25.30;99.90
10344;DHT22;5217;43.960;10.954;2022-09-16T01:16:56;25.30;99.90
10344;DHT22;5217;43.960;10.954;2022-09-16T01:19:42;25.30;99.90
10344;DHT22;5217;43.960;10.954;2022-09-16T01:22:26;25.30;99.90
10344;DHT22;5217;43.960;10.954;2022-09-16T01:25:05;25.30;99.90
10344;DHT22;5217;43.960;10.954;2022-09-16T01:28:08;25.30;99.90
10344;DHT22;5217;43.960;10.954;2022-09-16T01:30:58;25.30;99.90
10344;DHT22;5217;43.960;10.954;2022-09-16T01:33:37;25.30;99.90
10344;DHT22;5217;43.960;10.954;2022-09-16T01:36:22;25.30;99.90
10344;DHT22;5217;43.960;10.954;2022-09-16T01:39:04;25.30;99.90
10344;DHT22;5217;43.960;10.954;2022-09-16T01:41:43;25.30;99.90
10344;DHT22;5217;43.960;10.954;2022-09-16T01:44:22;25.40;99.90
10344;DHT22;5217;43.960;10.954;2022-09-16T01:46:58;25.40;99.90
10344;DHT22;5217;43.960;10.954;2022-09-16T01:49:37;25.30;99.90
10344;DHT22;5217;43.960;10.954;2022-09-16T01:52:14;25.30;99.90
10344;DHT22;5217;43.960;10.954;2022-09-16T01:54:48;25.30;99.90
10344;DHT22;5217;43.960;10.954;2022-09-16T01:57:22;25.20;99.90
10344;DHT22;5217;43.960;10.954;2022-09-16T01:59:56;25.30;99.90
10344;DHT22;5217;43.960;10.954;2022-09-16T02:02:30;25.20;99.90
10344;DHT22;5217;43.960;10.954;2022-09-16T02:05:02;25.20;99.90
10344;DHT22;5217;43.960;10.954;2022-09-16T02:07:36;25.20;99.90
10344;DHT22;5217;43.960;10.954;2022-09-16T02:10:12;25.20;99.90
10344;DHT22;5217;43.960;10.954;2022-09-16T02:12:43;25.30;99.90
10344;DHT22;5217;43.960;10.954;2022-09-16T02:15:16;25.30;99.90
10344;DHT22;5217;43.960;10.954;2022-09-16T02:17:52;25.20;99.90
10344;DHT22;5217;43.960;10.954;2022-09-16T02:20:25;25.20;99.90
10344;DHT22;5217;43.960;10.954;2022-09-16T02:22:59;25.20;99.90
10344;DHT22;5217;43.960;10.954;2022-09-16T02:25:32;25.20;99.90
10344;DHT22;5217;43.960;10.954;2022-09-16T02:28:06;25.20;99.90
10344;DHT22;5217;43.960;10.954;2022-09-16T02:30:41;25.20;99.90
10344;DHT22;5217;43.960;10.954;2022-09-16T02:33:12;25.10;99.90
10344;DHT22;5217;43.960;10.954;2022-09-16T02:35:45;25.10;99.90
10344;DHT22;5217;43.960;10.954;2022-09-16T02:38:18;25.10;99.90
10344;DHT22;5217;43.960;10.954;2022-09-16T02:40:51;25.20;99.90
10344;DHT22;5217;43.960;10.954;2022-09-16T02:43:21;25.20;99.90
10344;DHT22;5217;43.960;10.954;2022-09-16T02:45:57;25.20;99.90
10344;DHT22;5217;43.960;10.954;2022-09-16T02:48:34;25.20;99.90
10344;DHT22;5217;43.960;10.954;2022-09-16T02:51:15;25.30;99.90
10344;DHT22;5217;43.960;10.954;2022-09-16T02:53:49;25.20;99.90
10344;DHT22;5217;43.960;10.954;2022-09-16T02:56:23;25.20;99.90
10344;DHT22;5217;43.960;10.954;2022-09-16T02:58:53;25.20;99.90
10344;DHT22;5217;43.960;10.954;2022-09-16T03:01:22;25.10;99.90
10344;DHT22;5217;43.960;10.954;2022-09-16T03:03:54;25.10;99.90
10344;DHT22;5217;43.960;10.954;2022-09-16T03:06:24;25.10;99.90
10344;DHT22;5217;43.960;10.954;2022-09-16T03:08:54;25.10;99.90
10344;DHT22;5217;43.960;10.954;2022-09-16T03:14:59;25.10;99.90
10344;DHT22;5217;43.960;10.954;2022-09-16T03:17:40;25.10;99.90
10344;DHT22;5217;43.960;10.954;2022-09-16T03:20:17;25.10;99.90
10344;DHT22;5217;43.960;10.954;2022-09-16T03:22:51;25.00;99.90
10344;DHT22;5217;43.960;10.954;2022-09-16T03:25:32;25.10;99.90
10344;DHT22;5217;43.960;10.954;2022-09-16T03:28:08;25.00;99.90
10344;DHT22;5217;43.960;10.954;2022-09-16T03:30:45;25.00;99.90
10344;DHT22;5217;43.960;10.954;2022-09-16T03:33:21;25.00;99.90
10344;DHT22;5217;43.960;10.954;2022-09-16T03:35:55;25.00;99.90
10344;DHT22;5217;43.960;10.954;2022-09-16T03:38:26;25.00;99.90
10344;DHT22;5217;43.960;10.954;2022-09-16T03:40:56;25.00;99.90
10344;DHT22;5217;43.960;10.954;2022-09-16T03:43:25;25.00;99.90
10344;DHT22;5217;43.960;10.954;2022-09-16T03:45:53;25.00;99.90
10344;DHT22;5217;43.960;10.954;2022-09-16T03:48:21;25.00;99.90
10344;DHT22;5217;43.960;10.954;2022-09-16T03:50:51;25.00;99.90
10344;DHT22;5217;43.960;10.954;2022-09-16T03:53:19;25.00;99.90
10344;DHT22;5217;43.960;10.954;2022-09-16T03:55:48;25.00;99.90
10344;DHT22;5217;43.960;10.954;2022-09-16T03:58:16;25.00;99.90
10344;DHT22;5217;43.960;10.954;2022-09-16T04:00:48;24.90;99.90
10344;DHT22;5217;43.960;10.954;2022-09-16T04:03:17;25.00;99.90
10344;DHT22;5217;43.960;10.954;2022-09-16T04:05:50;25.00;99.90
10344;DHT22;5217;43.960;10.954;2022-09-16T04:08:20;25.00;99.90
10344;DHT22;5217;43.960;10.954;2022-09-16T04:10:53;24.90;99.90
10344;DHT22;5217;43.960;10.954;2022-09-16T04:13:22;24.90;99.90
10344;DHT22;5217;43.960;10.954;2022-09-16T04:15:50;24.90;99.90
10344;DHT22;5217;43.960;10.954;2022-09-16T04:18:19;24.90;99.90
10344;DHT22;5217;43.960;10.954;2022-09-16T04:20:47;24.90;99.90
10344;DHT22;5217;43.960;10.954;2022-09-16T04:23:15;24.90;99.90
10344;DHT22;5217;43.960;10.954;2022-09-16T04:25:53;24.90;99.90
10344;DHT22;5217;43.960;10.954;2022-09-16T04:28:21;25.00;99.90
10344;DHT22;5217;43.960;10.954;2022-09-16T04:30:50;24.90;99.90
10344;DHT22;5217;43.960;10.954;2022-09-16T04:33:19;24.90;99.90
10344;DHT22;5217;43.960;10.954;2022-09-16T04:35:47;24.90;99.90
10344;DHT22;5217;43.960;10.954;2022-09-16T04:38:16;24.90;99.90
10344;DHT22;5217;43.960;10.954;2022-09-16T04:40:45;24.90;99.90
10344;DHT22;5217;43.960;10.954;2022-09-16T04:43:14;24.90;99.90
10344;DHT22;5217;43.960;10.954;2022-09-16T04:45:42;24.90;99.90
10344;DHT22;5217;43.960;10.954;2022-09-16T04:48:11;24.90;99.90
10344;DHT22;5217;43.960;10.954;2022-09-16T04:50:39;24.90;99.90
10344;DHT22;5217;43.960;10.954;2022-09-16T04:53:08;24.90;99.90
10344;DHT22;5217;43.960;10.954;2022-09-16T04:55:36;24.90;99.90
10344;DHT22;5217;43.960;10.954;2022-09-16T04:58:06;24.90;99.90
10344;DHT22;5217;43.960;10.954;2022-09-16T05:00:35;24.90;99.90
10344;DHT22;5217;43.960;10.954;2022-09-16T05:03:03;24.90;99.90
10344;DHT22;5217;43.960;10.954;2022-09-16T05:05:32;24.80;99.90
10344;DHT22;5217;43.960;10.954;2022-09-16T05:08:00;24.80;99.90
10344;DHT22;5217;43.960;10.954;2022-09-16T05:10:29;24.80;99.90
10344;DHT22;5217;43.960;10.954;2022-09-16T05:12:57;24.80;99.90
10344;DHT22;5217;43.960;10.954;2022-09-16T05:15:27;24.80;99.90
10344;DHT22;5217;43.960;10.954;2022-09-16T05:17:56;24.80;99.90
10344;DHT22;5217;43.960;10.954;2022-09-16T05:20:24;24.80;99.90
10344;DHT22;5217;43.960;10.954;2022-09-16T05:22:53;24.70;99.90
10344;DHT22;5217;43.960;10.954;2022-09-16T05:25:21;24.70;99.90
10344;DHT22;5217;43.960;10.954;2022-09-16T05:27:49;24.70;99.90
10344;DHT22;5217;43.960;10.954;2022-09-16T05:30:18;24.70;99.90
10344;DHT22;5217;43.960;10.954;2022-09-16T05:32:53;24.70;99.90
10344;DHT22;5217;43.960;10.954;2022-09-16T05:35:22;24.70;99.90
10344;DHT22;5217;43.960;10.954;2022-09-16T05:37:50;24.70;99.90
10344;DHT22;5217;43.960;10.954;2022-09-16T05:40:18;24.70;99.90
10344;DHT22;5217;43.960;10.954;2022-09-16T05:42:48;24.70;99.90
10344;DHT22;5217;43.960;10.954;2022-09-16T05:45:16;24.70;99.90
10344;DHT22;5217;43.960;10.954;2022-09-16T05:47:54;24.70;99.90
10344;DHT22;5217;43.960;10.954;2022-09-16T05:50:22;24.70;99.90
10344;DHT22;5217;43.960;10.954;2022-09-16T05:52:51;24.70;99.90
10344;DHT22;5217;43.960;10.954;2022-09-16T05:55:19;24.70;99.90
10344;DHT22;5217;43.960;10.954;2022-09-16T05:57:48;24.70;99.90
10344;DHT22;5217;43.960;10.954;2022-09-16T06:00:17;24.70;99.90
10344;DHT22;5217;43.960;10.954;2022-09-16T06:02:48;24.70;99.90
10344;DHT22;5217;43.960;10.954;2022-09-16T06:05:19;24.70;99.90
10344;DHT22;5217;43.960;10.954;2022-09-16T06:07:48;24.70;99.90
10344;DHT22;5217;43.960;10.954;2022-09-16T06:10:16;24.70;99.90
10344;DHT22;5217;43.960;10.954;2022-09-16T06:12:45;24.70;99.90
10344;DHT22;5217;43.960;10.954;2022-09-16T06:15:14;24.70;99.90
10344;DHT22;5217;43.960;10.954;2022-09-16T06:17:42;24.70;99.90
10344;DHT22;5217;43.960;10.954;2022-09-16T06:20:11;24.70;99.90
10344;DHT22;5217;43.960;10.954;2022-09-16T06:22:42;24.70;99.90
10344;DHT22;5217;43.960;10.954;2022-09-16T06:25:11;24.70;99.90
10344;DHT22;5217;43.960;10.954;2022-09-16T06:27:39;24.80;99.90
10344;DHT22;5217;43.960;10.954;2022-09-16T06:30:09;24.70;99.90
10344;DHT22;5217;43.960;10.954;2022-09-16T06:32:37;24.80;99.90
10344;DHT22;5217;43.960;10.954;2022-09-16T06:35:07;24.80;99.90
10344;DHT22;5217;43.960;10.954;2022-09-16T06:37:36;24.80;99.90
10344;DHT22;5217;43.960;10.954;2022-09-16T06:40:07;24.80;99.90
10344;DHT22;5217;43.960;10.954;2022-09-16T06:42:37;24.80;99.90
10344;DHT22;5217;43.960;10.954;2022-09-16T06:45:06;24.80;99.90
10344;DHT22;5217;43.960;10.954;2022-09-16T06:47:35;24.80;99.90
10344;DHT22;5217;43.960;10.954;2022-09-16T06:50:04;24.80;99.90
10344;DHT22;5217;43.960;10.954;2022-09-16T06:52:33;24.80;99.90
10344;DHT22;5217;43.960;10.954;2022-09-16T06:55:02;24.90;99.90
10344;DHT22;5217;43.960;10.954;2022-09-16T06:57:32;24.90;99.90
10344;DHT22;5217;43.960;10.954;2022-09-16T07:00:01;24.90;99.90
10344;DHT22;5217;43.960;10.954;2022-09-16T07:02:30;24.90;99.90
10344;DHT22;5217;43.960;10.954;2022-09-16T07:04:58;24.90;99.90
10344;DHT22;5217;43.960;10.954;2022-09-16T07:07:29;24.90;99.90
10344;DHT22;5217;43.960;10.954;2022-09-16T07:09:59;24.90;99.90
10344;DHT22;5217;43.960;10.954;2022-09-16T07:12:28;24.90;99.90
10344;DHT22;5217;43.960;10.954;2022-09-16T07:14:58;24.90;99.90
10344;DHT22;5217;43.960;10.954;2022-09-16T07:17:27;24.90;99.90
10344;DHT22;5217;43.960;10.954;2022-09-16T07:19:56;24.90;99.90
10344;DHT22;5217;43.960;10.954;2022-09-16T07:22:24;24.90;99.90
10344;DHT22;5217;43.960;10.954;2022-09-16T07:24:53;25.00;99.90
10344;DHT22;5217;43.960;10.954;2022-09-16T07:27:22;25.00;99.90
10344;DHT22;5217;43.960;10.954;2022-09-16T07:29:50;25.00;99.90
10344;DHT22;5217;43.960;10.954;2022-09-16T07:32:21;25.00;99.90
10344;DHT22;5217;43.960;10.954;2022-09-16T07:34:50;25.00;99.90
10344;DHT22;5217;43.960;10.954;2022-09-16T07:37:20;25.00;99.90
10344;DHT22;5217;43.960;10.954;2022-09-16T07:39:48;25.00;99.90
10344;DHT22;5217;43.960;10.954;2022-09-16T07:42:17;25.00;99.90
10344;DHT22;5217;43.960;10.954;2022-09-16T07:44:46;25.00;99.90
10344;DHT22;5217;43.960;10.954;2022-09-16T07:47:14;25.00;99.90
10344;DHT22;5217;43.960;10.954;2022-09-16T07:49:49;25.00;99.90
10344;DHT22;5217;43.960;10.954;2022-09-16T07:52:22;25.10;99.90
10344;DHT22;5217;43.960;10.954;2022-09-16T07:54:55;25.00;99.90
10344;DHT22;5217;43.960;10.954;2022-09-16T07:57:24;25.10;99.90
10344;DHT22;5217;43.960;10.954;2022-09-16T07:59:52;25.10;99.90
10344;DHT22;5217;43.960;10.954;2022-09-16T08:02:20;25.10;99.90
10344;DHT22;5217;43.960;10.954;2022-09-16T08:04:50;25.10;99.90
10344;DHT22;5217;43.960;10.954;2022-09-16T08:07:19;25.20;99.90
10344;DHT22;5217;43.960;10.954;2022-09-16T08:09:47;25.20;99.90
10344;DHT22;5217;43.960;10.954;2022-09-16T08:12:18;25.20;99.90
10344;DHT22;5217;43.960;10.954;2022-09-16T08:14:46;25.30;99.90
10344;DHT22;5217;43.960;10.954;2022-09-16T08:17:15;25.30;99.90
10344;DHT22;5217;43.960;10.954;2022-09-16T08:19:43;25.30;99.90
10344;DHT22;5217;43.960;10.954;2022-09-16T08:22:13;25.30;99.90
10344;DHT22;5217;43.960;10.954;2022-09-16T08:24:41;25.20;99.90
10344;DHT22;5217;43.960;10.954;2022-09-16T08:27:10;25.30;99.90
10344;DHT22;5217;43.960;10.954;2022-09-16T08:29:38;25.30;99.90
10344;DHT22;5217;43.960;10.954;2022-09-16T08:32:06;25.30;99.90
10344;DHT22;5217;43.960;10.954;2022-09-16T08:34:37;25.30;99.90
10344;DHT22;5217;43.960;10.954;2022-09-16T08:37:06;25.30;99.90
10344;DHT22;5217;43.960;10.954;2022-09-16T08:39:37;25.40;99.90
10344;DHT22;5217;43.960;10.954;2022-09-16T08:42:28;25.40;99.90
10344;DHT22;5217;43.960;10.954;2022-09-16T08:45:11;25.40;99.90
10344;DHT22;5217;43.960;10.954;2022-09-16T08:47:56;25.50;99.90
10344;DHT22;5217;43.960;10.954;2022-09-16T08:50:29;25.50;99.90
10344;DHT22;5217;43.960;10.954;2022-09-16T08:53:01;25.50;99.90
10344;DHT22;5217;43.960;10.954;2022-09-16T08:55:34;25.50;99.90
10344;DHT22;5217;43.960;10.954;2022-09-16T08:58:11;25.50;99.90
10344;DHT22;5217;43.960;10.954;2022-09-16T09:00:42;25.50;99.90
10344;DHT22;5217;43.960;10.954;2022-09-16T09:03:17;25.50;99.90
10344;DHT22;5217;43.960;10.954;2022-09-16T09:05:50;25.40;99.90
10344;DHT22;5217;43.960;10.954;2022-09-16T09:08:29;25.40;99.90
10344;DHT22;5217;43.960;10.954;2022-09-16T09:11:05;25.40;99.90
10344;DHT22;5217;43.960;10.954;2022-09-16T09:13:52;25.40;99.90
10344;DHT22;5217;43.960;10.954;2022-09-16T09:16:34;25.40;99.90
10344;DHT22;5217;43.960;10.954;2022-09-16T09:19:16;25.40;99.90
10344;DHT22;5217;43.960;10.954;2022-09-16T09:21:55;25.40;99.90
10344;DHT22;5217;43.960;10.954;2022-09-16T09:24:39;25.30;99.90
10344;DHT22;5217;43.960;10.954;2022-09-16T09:27:14;25.40;99.90
10344;DHT22;5217;43.960;10.954;2022-09-16T09:29:54;25.40;99.90
10344;DHT22;5217;43.960;10.954;2022-09-16T09:32:35;25.40;99.90
10344;DHT22;5217;43.960;10.954;2022-09-16T09:35:27;25.40;99.90
10344;DHT22;5217;43.960;10.954;2022-09-16T09:38:31;25.40;99.90
10344;DHT22;5217;43.960;10.954;2022-09-16T09:41:05;25.50;99.90
10344;DHT22;5217;43.960;10.954;2022-09-16T09:43:42;25.50;99.90
10344;DHT22;5217;43.960;10.954;2022-09-16T09:46:17;25.50;99.90
10344;DHT22;5217;43.960;10.954;2022-09-16T09:48:53;25.60;99.90
10344;DHT22;5217;43.960;10.954;2022-09-16T09:51:29;25.60;99.90
10344;DHT22;5217;43.960;10.954;2022-09-16T09:54:00;25.70;99.90
10344;DHT22;5217;43.960;10.954;2022-09-16T09:56:32;25.70;99.90
10344;DHT22;5217;43.960;10.954;2022-09-16T09:59:13;25.70;99.90
10344;DHT22;5217;43.960;10.954;2022-09-16T10:01:43;25.70;99.90
10344;DHT22;5217;43.960;10.954;2022-09-16T10:04:14;25.70;99.90
10344;DHT22;5217;43.960;10.954;2022-09-16T10:06:43;25.70;99.90
10344;DHT22;5217;43.960;10.954;2022-09-16T10:09:14;25.60;99.90
10344;DHT22;5217;43.960;10.954;2022-09-16T10:11:48;25.60;99.90
10344;DHT22;5217;43.960;10.954;2022-09-16T10:14:29;25.60;99.90
10344;DHT22;5217;43.960;10.954;2022-09-16T10:17:00;25.60;99.90
10344;DHT22;5217;43.960;10.954;2022-09-16T10:19:33;25.60;99.90
10344;DHT22;5217;43.960;10.954;2022-09-16T10:22:09;25.60;99.90
10344;DHT22;5217;43.960;10.954;2022-09-16T10:24:39;25.60;99.90
10344;DHT22;5217;43.960;10.954;2022-09-16T10:27:18;25.70;99.90
10344;DHT22;5217;43.960;10.954;2022-09-16T10:30:03;25.60;99.90
10344;DHT22;5217;43.960;10.954;2022-09-16T10:32:36;25.70;99.90
10344;DHT22;5217;43.960;10.954;2022-09-16T10:35:08;25.70;99.90
10344;DHT22;5217;43.960;10.954;2022-09-16T10:37:36;25.70;99.90
10344;DHT22;5217;43.960;10.954;2022-09-16T10:40:14;25.80;99.90
10344;DHT22;5217;43.960;10.954;2022-09-16T10:42:46;25.90;99.90
10344;DHT22;5217;43.960;10.954;2022-09-16T10:45:22;26.00;99.90
10344;DHT22;5217;43.960;10.954;2022-09-16T10:47:54;26.10;99.90
10344;DHT22;5217;43.960;10.954;2022-09-16T10:50:23;26.10;99.90
10344;DHT22;5217;43.960;10.954;2022-09-16T10:52:52;26.20;99.90
10344;DHT22;5217;43.960;10.954;2022-09-16T10:55:24;26.20;99.90
10344;DHT22;5217;43.960;10.954;2022-09-16T10:58:06;26.30;99.90
10344;DHT22;5217;43.960;10.954;2022-09-16T11:00:44;26.40;99.90
10344;DHT22;5217;43.960;10.954;2022-09-16T11:06:35;26.80;99.90
10344;DHT22;5217;43.960;10.954;2022-09-16T11:09:14;26.90;99.90
10344;DHT22;5217;43.960;10.954;2022-09-16T11:12:01;27.10;99.90
10344;DHT22;5217;43.960;10.954;2022-09-16T11:14:44;27.30;99.90
10344;DHT22;5217;43.960;10.954;2022-09-16T11:17:32;27.50;99.90
10344;DHT22;5217;43.960;10.954;2022-09-16T11:20:30;27.70;99.90
10344;DHT22;5217;43.960;10.954;2022-09-16T11:23:05;27.50;99.90
10344;DHT22;5217;43.960;10.954;2022-09-16T11:25:43;27.40;99.90
10344;DHT22;5217;43.960;10.954;2022-09-16T11:31:13;27.70;99.90
10344;DHT22;5217;43.960;10.954;2022-09-16T11:33:50;27.80;99.90
10344;DHT22;5217;43.960;10.954;2022-09-16T11:36:36;28.00;99.90
10344;DHT22;5217;43.960;10.954;2022-09-16T11:39:17;28.00;99.90
10344;DHT22;5217;43.960;10.954;2022-09-16T11:41:54;28.30;99.90
10344;DHT22;5217;43.960;10.954;2022-09-16T11:47:35;28.80;99.90
10344;DHT22;5217;43.960;10.954;2022-09-16T11:50:27;29.30;99.90
10344;DHT22;5217;43.960;10.954;2022-09-16T11:53:18;29.60;99.90
10344;DHT22;5217;43.960;10.954;2022-09-16T11:55:57;30.00;99.90
10344;DHT22;5217;43.960;10.954;2022-09-16T11:58:37;30.30;99.90
10344;DHT22;5217;43.960;10.954;2022-09-16T12:01:14;30.60;99.90
10344;DHT22;5217;43.960;10.954;2022-09-16T12:03:51;31.00;99.90
10344;DHT22;5217;43.960;10.954;2022-09-16T12:06:24;31.40;99.90
10344;DHT22;5217;43.960;10.954;2022-09-16T12:08:59;31.70;99.90
10344;DHT22;5217;43.960;10.954;2022-09-16T12:11:36;32.00;99.90
10344;DHT22;5217;43.960;10.954;2022-09-16T12:14:11;32.20;99.90
10344;DHT22;5217;43.960;10.954;2022-09-16T12:16:44;32.60;99.40
10344;DHT22;5217;43.960;10.954;2022-09-16T12:19:18;32.90;98.40
10344;DHT22;5217;43.960;10.954;2022-09-16T12:21:52;33.10;97.20
10344;DHT22;5217;43.960;10.954;2022-09-16T12:24:31;33.40;95.70
10344;DHT22;5217;43.960;10.954;2022-09-16T12:27:08;33.60;95.10
10344;DHT22;5217;43.960;10.954;2022-09-16T12:29:43;33.80;93.60
10344;DHT22;5217;43.960;10.954;2022-09-16T12:32:19;34.00;93.50
10344;DHT22;5217;43.960;10.954;2022-09-16T12:34:53;34.40;93.00
10344;DHT22;5217;43.960;10.954;2022-09-16T12:37:31;34.50;91.50
10344;DHT22;5217;43.960;10.954;2022-09-16T12:40:02;34.80;90.80
10344;DHT22;5217;43.960;10.954;2022-09-16T12:43:00;34.80;90.80
10344;DHT22;5217;43.960;10.954;2022-09-16T12:45:50;34.80;90.70
10344;DHT22;5217;43.960;10.954;2022-09-16T12:51:44;35.30;88.80
10344;DHT22;5217;43.960;10.954;2022-09-16T12:57:45;35.60;86.50
10344;DHT22;5217;43.960;10.954;2022-09-16T13:00:54;35.70;84.70
10344;DHT22;5217;43.960;10.954;2022-09-16T13:03:40;35.80;85.20
10344;DHT22;5217;43.960;10.954;2022-09-16T13:06:26;36.00;82.80
10344;DHT22;5217;43.960;10.954;2022-09-16T13:09:18;35.80;82.50
10344;DHT22;5217;43.960;10.954;2022-09-16T13:11:56;35.70;82.70
10344;DHT22;5217;43.960;10.954;2022-09-16T13:14:49;35.90;83.10
10344;DHT22;5217;43.960;10.954;2022-09-16T13:17:27;35.60;82.00
10344;DHT22;5217;43.960;10.954;2022-09-16T13:20:05;35.50;81.10
10344;DHT22;5217;43.960;10.954;2022-09-16T13:22:45;35.60;81.80
10344;DHT22;5217;43.960;10.954;2022-09-16T13:25:20;35.90;82.70
10344;DHT22;5217;43.960;10.954;2022-09-16T13:27:58;36.10;82.80
10344;DHT22;5217;43.960;10.954;2022-09-16T13:30:33;36.10;80.90
10344;DHT22;5217;43.960;10.954;2022-09-16T13:33:21;35.70;81.30
10344;DHT22;5217;43.960;10.954;2022-09-16T13:36:11;35.20;82.40
10344;DHT22;5217;43.960;10.954;2022-09-16T13:38:42;34.60;82.80
10344;DHT22;5217;43.960;10.954;2022-09-16T13:41:12;34.30;82.90
10344;DHT22;5217;43.960;10.954;2022-09-16T13:43:52;34.30;83.90
10344;DHT22;5217;43.960;10.954;2022-09-16T13:46:32;34.00;82.90
10344;DHT22;5217;43.960;10.954;2022-09-16T13:49:19;33.70;83.70
10344;DHT22;5217;43.960;10.954;2022-09-16T13:51:50;33.50;85.10
10344;DHT22;5217;43.960;10.954;2022-09-16T13:54:31;33.60;86.40
10344;DHT22;5217;43.960;10.954;2022-09-16T13:57:29;33.50;86.40
10344;DHT22;5217;43.960;10.954;2022-09-16T14:00:12;34.00;85.70
10344;DHT22;5217;43.960;10.954;2022-09-16T14:09:04;34.10;84.30
10344;DHT22;5217;43.960;10.954;2022-09-16T14:11:41;33.90;84.90
10344;DHT22;5217;43.960;10.954;2022-09-16T14:14:14;34.10;84.40
10344;DHT22;5217;43.960;10.954;2022-09-16T14:17:14;34.00;84.10
10344;DHT22;5217;43.960;10.954;2022-09-16T14:19:44;33.60;84.60
10344;DHT22;5217;43.960;10.954;2022-09-16T14:22:17;33.30;85.90
10344;DHT22;5217;43.960;10.954;2022-09-16T14:24:46;33.00;86.80
10344;DHT22;5217;43.960;10.954;2022-09-16T14:27:35;32.70;87.30
10344;DHT22;5217;43.960;10.954;2022-09-16T14:30:12;32.50;88.90
10344;DHT22;5217;43.960;10.954;2022-09-16T14:32:44;32.70;90.00
10344;DHT22;5217;43.960;10.954;2022-09-16T14:35:16;33.10;90.10
10344;DHT22;5217;43.960;10.954;2022-09-16T14:37:56;33.00;90.00
10344;DHT22;5217;43.960;10.954;2022-09-16T14:40:26;32.70;90.00
10344;DHT22;5217;43.960;10.954;2022-09-16T14:42:59;32.50;90.10
10344;DHT22;5217;43.960;10.954;2022-09-16T14:45:30;32.40;90.10
10344;DHT22;5217;43.960;10.954;2022-09-16T14:48:07;32.20;90.00
10344;DHT22;5217;43.960;10.954;2022-09-16T14:50:38;32.00;89.90
10344;DHT22;5217;43.960;10.954;2022-09-16T14:53:23;31.90;90.00
10344;DHT22;5217;43.960;10.954;2022-09-16T14:56:02;31.70;90.10
10344;DHT22;5217;43.960;10.954;2022-09-16T14:58:32;31.50;90.70
10344;DHT22;5217;43.960;10.954;2022-09-16T15:01:04;31.40;90.80
10344;DHT22;5217;43.960;10.954;2022-09-16T15:03:44;31.30;91.10
10344;DHT22;5217;43.960;10.954;2022-09-16T15:06:17;31.20;91.40
10344;DHT22;5217;43.960;10.954;2022-09-16T15:08:50;31.10;91.70
10344;DHT22;5217;43.960;10.954;2022-09-16T15:11:22;31.00;91.90
10344;DHT22;5217;43.960;10.954;2022-09-16T15:14:13;30.90;92.20
10344;DHT22;5217;43.960;10.954;2022-09-16T15:16:44;30.80;92.60
10344;DHT22;5217;43.960;10.954;2022-09-16T15:19:20;30.80;93.00
10344;DHT22;5217;43.960;10.954;2022-09-16T15:21:49;30.80;93.00
10344;DHT22;5217;43.960;10.954;2022-09-16T15:24:20;30.70;93.10
10344;DHT22;5217;43.960;10.954;2022-09-16T15:26:50;30.60;93.20
10344;DHT22;5217;43.960;10.954;2022-09-16T15:29:28;30.40;93.20
10344;DHT22;5217;43.960;10.954;2022-09-16T15:32:15;30.50;93.40
10344;DHT22;5217;43.960;10.954;2022-09-16T15:35:02;30.50;93.60
10344;DHT22;5217;43.960;10.954;2022-09-16T15:37:32;30.60;93.70
10344;DHT22;5217;43.960;10.954;2022-09-16T15:40:09;30.60;93.60
10344;DHT22;5217;43.960;10.954;2022-09-16T15:42:38;30.50;93.70
10344;DHT22;5217;43.960;10.954;2022-09-16T15:45:14;30.40;93.90
10344;DHT22;5217;43.960;10.954;2022-09-16T15:47:53;30.30;94.20
10344;DHT22;5217;43.960;10.954;2022-09-16T15:50:25;30.30;94.50
10344;DHT22;5217;43.960;10.954;2022-09-16T15:52:59;30.30;94.60
10344;DHT22;5217;43.960;10.954;2022-09-16T15:55:34;30.30;94.80
10344;DHT22;5217;43.960;10.954;2022-09-16T15:58:09;30.30;94.90
10344;DHT22;5217;43.960;10.954;2022-09-16T16:01:00;30.20;94.90
10344;DHT22;5217;43.960;10.954;2022-09-16T16:03:36;30.20;95.30
10344;DHT22;5217;43.960;10.954;2022-09-16T16:06:13;30.10;95.40
10344;DHT22;5217;43.960;10.954;2022-09-16T16:08:45;30.00;95.60
10344;DHT22;5217;43.960;10.954;2022-09-16T16:11:16;30.00;95.80
10344;DHT22;5217;43.960;10.954;2022-09-16T16:13:45;29.90;96.00
10344;DHT22;5217;43.960;10.954;2022-09-16T16:16:16;29.80;95.80
10344;DHT22;5217;43.960;10.954;2022-09-16T16:18:45;29.80;96.10
10344;DHT22;5217;43.960;10.954;2022-09-16T16:21:15;29.80;95.80
10344;DHT22;5217;43.960;10.954;2022-09-16T16:23:44;29.70;95.50
10344;DHT22;5217;43.960;10.954;2022-09-16T16:26:12;29.60;95.50
10344;DHT22;5217;43.960;10.954;2022-09-16T16:28:41;29.50;95.60
10344;DHT22;5217;43.960;10.954;2022-09-16T16:31:12;29.50;95.70
10344;DHT22;5217;43.960;10.954;2022-09-16T16:33:42;29.50;95.70
10344;DHT22;5217;43.960;10.954;2022-09-16T16:36:12;29.40;95.80
10344;DHT22;5217;43.960;10.954;2022-09-16T16:38:42;29.30;95.90